createdAt,value
2022-07-26T00:00:57.012Z,23.66
2022-07-26T00:06:03.445Z,23.44
2022-07-26T00:16:18.823Z,23.48
2022-07-26T00:21:26.203Z,23.3
2022-07-26T00:26:33.270Z,24.66
2022-07-26T00:31:42.423Z,26.36
2022-07-26T01:12:44.423Z,21.5
2022-07-26T01:17:52.296Z,21.8
2022-07-26T03:07:09.774Z,19.24
2022-07-26T04:13:52.660Z,18.86
2022-07-26T04:18:59.455Z,18.93
2022-07-26T04:24:09.128Z,18.99
2022-07-26T04:29:17.282Z,19.04
2022-07-26T04:39:33.908Z,19.06
2022-07-26T04:44:41.780Z,19.09
2022-07-26T04:54:56.820Z,19.14
2022-07-26T05:00:05.588Z,19.23
2022-07-26T05:05:13.543Z,19.31
2022-07-26T05:10:22.004Z,19.4
2022-07-26T05:15:29.544Z,19.51
2022-07-26T05:20:37.877Z,19.58
2022-07-26T05:25:45.218Z,19.66
2022-07-26T05:30:54.035Z,19.78
2022-07-26T05:36:01.921Z,19.92
2022-07-26T05:41:09.381Z,20.08
2022-07-26T05:46:17.242Z,20.15
2022-07-26T05:51:23.815Z,20.09
2022-07-26T06:01:39.234Z,19.97
2022-07-26T06:06:48.248Z,19.97
2022-07-26T06:22:12.345Z,19.91
2022-07-26T06:27:19.944Z,20.0
2022-07-26T06:52:58.864Z,19.58
2022-07-26T07:03:14.317Z,19.75
2022-07-26T07:13:29.801Z,19.91
2022-07-26T07:18:39.673Z,19.97
2022-07-26T07:23:46.859Z,20.02
2022-07-26T07:28:54.426Z,20.02
2022-07-26T07:34:01.274Z,20.14
2022-07-26T07:44:17.048Z,20.52
2022-07-26T07:49:24.374Z,20.69
2022-07-26T08:04:48.107Z,21.1
2022-07-26T08:09:57.186Z,21.1
2022-07-26T08:20:11.954Z,21.38
2022-07-26T08:45:50.220Z,21.84
2022-07-26T08:50:58.177Z,21.76
2022-07-26T09:01:14.653Z,21.98
2022-07-26T09:32:00.627Z,23.56
2022-07-26T09:37:07.949Z,23.78
2022-07-26T09:47:23.151Z,23.94
2022-07-26T09:52:31.346Z,24.08
2022-07-26T09:57:45.083Z,24.07
2022-07-26T10:23:25.107Z,28.54
2022-07-26T10:38:46.223Z,25.03
2022-07-26T10:43:53.927Z,26.32
2022-07-26T10:54:08.806Z,26.16
2022-07-26T10:59:16.084Z,26.12
2022-07-26T11:19:46.620Z,26.61
2022-07-26T11:45:26.055Z,26.38
2022-07-26T12:26:35.055Z,21.54
2022-07-26T12:41:59.823Z,22.66
2022-07-26T12:47:07.842Z,22.22
2022-07-26T12:52:15.480Z,21.88
2022-07-26T12:57:23.844Z,21.29
2022-07-26T13:02:31.321Z,20.96
2022-07-26T13:07:38.491Z,21.39
2022-07-26T13:12:48.054Z,21.64
2022-07-26T13:17:56.508Z,22.24
2022-07-26T13:23:05.743Z,22.58
2022-07-26T13:28:13.454Z,22.49
2022-07-26T13:33:20.911Z,22.61
2022-07-26T13:38:28.117Z,22.94
2022-07-26T13:48:42.503Z,22.33
2022-07-26T13:53:49.875Z,21.68
2022-07-26T16:07:12.257Z,21.94
2022-07-26T16:12:21.288Z,21.82
2022-07-26T16:17:29.238Z,21.72
2022-07-26T16:25:41.152Z,21.76
2022-07-26T16:30:46.712Z,21.66
2022-07-26T16:35:53.861Z,21.38
2022-07-26T16:41:00.667Z,21.2
2022-07-26T16:46:08.308Z,21.06
2022-07-26T16:51:16.381Z,20.98
2022-07-26T16:56:24.425Z,21.0
2022-07-26T17:01:32.364Z,20.98
2022-07-26T17:06:39.608Z,20.9
2022-07-26T17:11:47.146Z,20.76
2022-07-26T17:16:55.177Z,20.54
2022-07-26T17:22:03.356Z,20.4
2022-07-26T17:27:11.329Z,20.36
2022-07-26T17:32:19.089Z,20.35
2022-07-26T17:37:27.678Z,20.3
2022-07-26T17:42:35.780Z,20.16
2022-07-26T17:47:43.633Z,20.03
2022-07-26T17:52:51.594Z,19.92
2022-07-26T17:57:59.431Z,19.78
2022-07-26T18:03:06.877Z,19.58
2022-07-26T18:08:14.458Z,19.38
2022-07-26T18:13:22.118Z,19.2
2022-07-26T18:18:29.757Z,19.08
2022-07-26T18:23:37.266Z,18.94
2022-07-26T18:28:45.058Z,18.83
2022-07-26T18:33:53.195Z,18.9
2022-07-26T18:39:01.437Z,18.89
2022-07-26T18:44:08.633Z,18.8
2022-07-26T18:49:17.610Z,18.57
2022-07-26T18:54:26.703Z,18.54
2022-07-26T18:59:35.669Z,18.58
2022-07-26T19:04:42.549Z,18.59
2022-07-26T19:09:50.239Z,18.51
2022-07-26T19:14:58.456Z,18.46
2022-07-26T19:20:06.178Z,18.38
2022-07-26T19:25:13.442Z,18.39
2022-07-26T19:30:20.440Z,18.4
2022-07-26T19:35:28.571Z,18.35
2022-07-26T19:40:36.749Z,18.33
2022-07-26T19:45:45.269Z,18.33
2022-07-26T19:50:53.581Z,18.34
2022-07-26T19:56:01.108Z,18.34
2022-07-26T20:01:08.102Z,18.32
2022-07-26T20:06:22.217Z,18.28
2022-07-26T20:11:30.183Z,18.26
2022-07-26T20:16:36.729Z,18.32
2022-07-26T20:21:44.395Z,18.26
2022-07-26T20:26:50.502Z,18.19
2022-07-26T20:31:59.064Z,18.09
2022-07-26T20:37:06.810Z,18.03
2022-07-26T20:42:15.143Z,17.92
2022-07-26T20:47:23.267Z,17.82
2022-07-26T20:52:31.419Z,17.69
2022-07-26T20:57:38.176Z,17.64
2022-07-26T21:02:46.338Z,17.6
2022-07-26T21:07:53.858Z,17.53
2022-07-26T21:13:01.078Z,17.44
2022-07-26T21:18:08.824Z,17.42
2022-07-26T21:28:23.454Z,17.4
2022-07-26T21:33:31.376Z,17.4
2022-07-26T21:38:39.033Z,17.57
2022-07-26T21:43:47.985Z,17.58
2022-07-26T21:48:56.070Z,17.57
2022-07-26T21:59:10.417Z,17.5
2022-07-26T22:09:26.015Z,17.52
2022-07-26T22:14:33.865Z,17.47
2022-07-26T22:19:41.742Z,17.44
2022-07-26T22:24:49.716Z,17.4
2022-07-26T22:29:57.264Z,17.41
2022-07-26T22:35:05.258Z,17.4
2022-07-26T22:40:13.241Z,17.38
2022-07-26T22:45:22.190Z,17.42
2022-07-26T22:50:30.057Z,17.42
2022-07-26T22:55:37.664Z,17.43
2022-07-26T23:00:45.545Z,17.46
2022-07-26T23:11:00.104Z,17.44
2022-07-26T23:16:06.699Z,17.42
2022-07-26T23:21:15.422Z,17.41
2022-07-26T23:26:22.976Z,17.41
2022-07-26T23:31:31.222Z,17.5
2022-07-26T23:36:39.398Z,17.54
2022-07-26T23:41:46.530Z,17.54
2022-07-26T23:46:54.866Z,17.54
2022-07-26T23:52:02.135Z,17.56
2022-07-26T23:57:09.755Z,17.54
